sensor_id;sensor_type;location;lat;lon;timestamp;temperature;humidity
12426;DHT22;6277;49.824;9.562;2023-07-13T00:01:16;21.50;48.40
12426;DHT22;6277;49.824;9.562;2023-07-13T00:03:42;21.40;48.70
12426;DHT22;6277;49.824;9.562;2023-07-13T00:06:08;21.30;48.60
12426;DHT22;6277;49.824;9.562;2023-07-13T00:08:34;21.20;48.70
12426;DHT22;6277;49.824;9.562;2023-07-13T00:11:00;21.20;48.90
12426;DHT22;6277;49.824;9.562;2023-07-13T00:13:26;21.10;49.00
12426;DHT22;6277;49.824;9.562;2023-07-13T00:15:52;21.00;49.00
12426;DHT22;6277;49.824;9.562;2023-07-13T00:18:19;20.90;49.10
12426;DHT22;6277;49.824;9.562;2023-07-13T00:20:45;20.80;49.20
12426;DHT22;6277;49.824;9.562;2023-07-13T00:23:10;20.80;49.20
12426;DHT22;6277;49.824;9.562;2023-07-13T00:25:36;20.70;49.20
12426;DHT22;6277;49.824;9.562;2023-07-13T00:28:03;20.60;49.30
12426;DHT22;6277;49.824;9.562;2023-07-13T00:30:28;20.60;49.40
12426;DHT22;6277;49.824;9.562;2023-07-13T00:32:54;20.60;49.50
12426;DHT22;6277;49.824;9.562;2023-07-13T00:35:19;20.50;49.90
12426;DHT22;6277;49.824;9.562;2023-07-13T00:37:45;20.50;49.50
12426;DHT22;6277;49.824;9.562;2023-07-13T00:40:12;20.50;49.70
12426;DHT22;6277;49.824;9.562;2023-07-13T00:42:38;20.40;49.70
12426;DHT22;6277;49.824;9.562;2023-07-13T00:45:06;20.40;49.80
12426;DHT22;6277;49.824;9.562;2023-07-13T00:47:32;20.40;49.90
12426;DHT22;6277;49.824;9.562;2023-07-13T00:49:58;20.30;49.70
12426;DHT22;6277;49.824;9.562;2023-07-13T00:52:24;20.30;49.80
12426;DHT22;6277;49.824;9.562;2023-07-13T00:54:50;20.30;49.80
12426;DHT22;6277;49.824;9.562;2023-07-13T00:57:18;20.30;49.80
12426;DHT22;6277;49.824;9.562;2023-07-13T00:59:52;20.30;49.90
12426;DHT22;6277;49.824;9.562;2023-07-13T01:02:19;20.30;50.00
12426;DHT22;6277;49.824;9.562;2023-07-13T01:04:45;20.20;49.90
12426;DHT22;6277;49.824;9.562;2023-07-13T01:07:11;20.20;49.90
12426;DHT22;6277;49.824;9.562;2023-07-13T01:09:37;20.10;50.50
12426;DHT22;6277;49.824;9.562;2023-07-13T01:12:03;20.10;50.00
12426;DHT22;6277;49.824;9.562;2023-07-13T01:14:29;20.10;50.10
12426;DHT22;6277;49.824;9.562;2023-07-13T01:16:55;20.00;50.10
12426;DHT22;6277;49.824;9.562;2023-07-13T01:19:45;20.00;50.20
12426;DHT22;6277;49.824;9.562;2023-07-13T01:22:13;19.90;50.50
12426;DHT22;6277;49.824;9.562;2023-07-13T01:24:40;19.90;50.40
12426;DHT22;6277;49.824;9.562;2023-07-13T01:27:07;19.80;50.40
12426;DHT22;6277;49.824;9.562;2023-07-13T01:29:35;19.80;50.40
12426;DHT22;6277;49.824;9.562;2023-07-13T01:32:11;19.70;50.60
12426;DHT22;6277;49.824;9.562;2023-07-13T01:34:37;19.70;50.60
12426;DHT22;6277;49.824;9.562;2023-07-13T01:37:04;19.70;50.70
12426;DHT22;6277;49.824;9.562;2023-07-13T01:39:30;19.60;50.80
12426;DHT22;6277;49.824;9.562;2023-07-13T01:41:57;19.60;50.80
12426;DHT22;6277;49.824;9.562;2023-07-13T01:44:22;19.60;50.90
12426;DHT22;6277;49.824;9.562;2023-07-13T01:46:48;19.50;50.80
12426;DHT22;6277;49.824;9.562;2023-07-13T01:49:13;19.50;50.90
12426;DHT22;6277;49.824;9.562;2023-07-13T01:51:39;19.50;50.90
12426;DHT22;6277;49.824;9.562;2023-07-13T01:54:04;19.40;51.00
12426;DHT22;6277;49.824;9.562;2023-07-13T01:56:30;19.40;51.10
12426;DHT22;6277;49.824;9.562;2023-07-13T01:58:55;19.30;51.10
12426;DHT22;6277;49.824;9.562;2023-07-13T02:01:22;19.30;51.10
12426;DHT22;6277;49.824;9.562;2023-07-13T02:03:47;19.20;51.30
12426;DHT22;6277;49.824;9.562;2023-07-13T02:06:13;19.20;51.40
12426;DHT22;6277;49.824;9.562;2023-07-13T02:08:40;19.20;52.20
12426;DHT22;6277;49.824;9.562;2023-07-13T02:11:06;19.10;51.70
12426;DHT22;6277;49.824;9.562;2023-07-13T02:13:31;19.00;51.80
12426;DHT22;6277;49.824;9.562;2023-07-13T02:15:56;19.00;51.90
12426;DHT22;6277;49.824;9.562;2023-07-13T02:18:22;18.90;51.80
12426;DHT22;6277;49.824;9.562;2023-07-13T02:20:47;18.90;51.80
12426;DHT22;6277;49.824;9.562;2023-07-13T02:23:13;18.90;51.90
12426;DHT22;6277;49.824;9.562;2023-07-13T02:25:39;18.80;52.00
12426;DHT22;6277;49.824;9.562;2023-07-13T02:28:05;18.80;52.10
12426;DHT22;6277;49.824;9.562;2023-07-13T02:30:30;18.70;52.10
12426;DHT22;6277;49.824;9.562;2023-07-13T02:32:56;18.70;52.20
12426;DHT22;6277;49.824;9.562;2023-07-13T02:35:23;18.70;52.30
12426;DHT22;6277;49.824;9.562;2023-07-13T02:37:48;18.60;52.40
12426;DHT22;6277;49.824;9.562;2023-07-13T02:40:14;18.60;52.50
12426;DHT22;6277;49.824;9.562;2023-07-13T02:42:40;18.60;52.50
12426;DHT22;6277;49.824;9.562;2023-07-13T02:45:07;18.60;52.60
12426;DHT22;6277;49.824;9.562;2023-07-13T02:47:33;18.50;52.70
12426;DHT22;6277;49.824;9.562;2023-07-13T02:49:59;18.50;52.70
12426;DHT22;6277;49.824;9.562;2023-07-13T02:52:24;18.50;52.70
12426;DHT22;6277;49.824;9.562;2023-07-13T02:54:50;18.60;52.90
12426;DHT22;6277;49.824;9.562;2023-07-13T02:57:16;18.60;52.90
12426;DHT22;6277;49.824;9.562;2023-07-13T02:59:41;18.60;52.90
12426;DHT22;6277;49.824;9.562;2023-07-13T03:02:07;18.60;53.00
12426;DHT22;6277;49.824;9.562;2023-07-13T03:04:35;18.60;53.00
12426;DHT22;6277;49.824;9.562;2023-07-13T03:07:01;18.70;53.10
12426;DHT22;6277;49.824;9.562;2023-07-13T03:09:27;18.70;53.00
12426;DHT22;6277;49.824;9.562;2023-07-13T03:11:54;18.70;52.90
12426;DHT22;6277;49.824;9.562;2023-07-13T03:14:21;18.70;52.90
12426;DHT22;6277;49.824;9.562;2023-07-13T03:16:47;18.80;53.00
12426;DHT22;6277;49.824;9.562;2023-07-13T03:19:13;18.80;52.90
12426;DHT22;6277;49.824;9.562;2023-07-13T03:21:38;18.80;52.90
12426;DHT22;6277;49.824;9.562;2023-07-13T03:24:04;18.80;52.90
12426;DHT22;6277;49.824;9.562;2023-07-13T03:26:29;18.80;53.00
12426;DHT22;6277;49.824;9.562;2023-07-13T03:28:55;18.80;53.00
12426;DHT22;6277;49.824;9.562;2023-07-13T03:31:25;18.80;53.00
12426;DHT22;6277;49.824;9.562;2023-07-13T03:33:52;18.90;53.20
12426;DHT22;6277;49.824;9.562;2023-07-13T03:36:20;18.90;53.10
12426;DHT22;6277;49.824;9.562;2023-07-13T03:38:48;18.90;53.10
12426;DHT22;6277;49.824;9.562;2023-07-13T03:41:14;18.90;53.10
12426;DHT22;6277;49.824;9.562;2023-07-13T03:43:40;19.00;53.10
12426;DHT22;6277;49.824;9.562;2023-07-13T03:46:05;19.00;53.10
12426;DHT22;6277;49.824;9.562;2023-07-13T03:48:31;19.00;53.10
12426;DHT22;6277;49.824;9.562;2023-07-13T03:50:56;19.00;53.00
12426;DHT22;6277;49.824;9.562;2023-07-13T03:53:22;19.00;53.00
12426;DHT22;6277;49.824;9.562;2023-07-13T03:55:47;19.10;53.10
12426;DHT22;6277;49.824;9.562;2023-07-13T03:58:31;19.10;53.10
12426;DHT22;6277;49.824;9.562;2023-07-13T04:00:58;19.10;53.40
12426;DHT22;6277;49.824;9.562;2023-07-13T04:03:25;19.10;53.10
12426;DHT22;6277;49.824;9.562;2023-07-13T04:05:54;19.10;53.10
12426;DHT22;6277;49.824;9.562;2023-07-13T04:08:20;19.10;53.10
12426;DHT22;6277;49.824;9.562;2023-07-13T04:10:45;19.10;53.10
12426;DHT22;6277;49.824;9.562;2023-07-13T04:13:11;19.10;53.10
12426;DHT22;6277;49.824;9.562;2023-07-13T04:15:38;19.10;53.20
12426;DHT22;6277;49.824;9.562;2023-07-13T04:18:03;19.10;53.30
12426;DHT22;6277;49.824;9.562;2023-07-13T04:20:29;19.10;53.30
12426;DHT22;6277;49.824;9.562;2023-07-13T04:22:55;19.10;53.30
12426;DHT22;6277;49.824;9.562;2023-07-13T04:25:21;19.10;53.30
12426;DHT22;6277;49.824;9.562;2023-07-13T04:27:47;19.10;53.40
12426;DHT22;6277;49.824;9.562;2023-07-13T04:30:12;19.10;53.30
12426;DHT22;6277;49.824;9.562;2023-07-13T04:32:38;19.10;53.30
12426;DHT22;6277;49.824;9.562;2023-07-13T04:35:04;19.20;53.50
12426;DHT22;6277;49.824;9.562;2023-07-13T04:37:30;19.20;53.40
12426;DHT22;6277;49.824;9.562;2023-07-13T04:39:55;19.20;53.50
12426;DHT22;6277;49.824;9.562;2023-07-13T04:42:21;19.20;53.60
12426;DHT22;6277;49.824;9.562;2023-07-13T04:44:51;19.30;53.70
12426;DHT22;6277;49.824;9.562;2023-07-13T04:47:17;19.20;53.60
12426;DHT22;6277;49.824;9.562;2023-07-13T04:49:44;19.30;53.70
12426;DHT22;6277;49.824;9.562;2023-07-13T04:52:10;19.30;53.70
12426;DHT22;6277;49.824;9.562;2023-07-13T04:54:36;19.30;53.60
12426;DHT22;6277;49.824;9.562;2023-07-13T04:57:03;19.30;53.70
12426;DHT22;6277;49.824;9.562;2023-07-13T04:59:29;19.30;53.70
12426;DHT22;6277;49.824;9.562;2023-07-13T05:01:55;19.30;53.80
12426;DHT22;6277;49.824;9.562;2023-07-13T05:04:20;19.30;53.80
12426;DHT22;6277;49.824;9.562;2023-07-13T05:06:46;19.30;53.80
12426;DHT22;6277;49.824;9.562;2023-07-13T05:09:11;19.30;53.90
12426;DHT22;6277;49.824;9.562;2023-07-13T05:11:38;19.30;54.00
12426;DHT22;6277;49.824;9.562;2023-07-13T05:14:03;19.30;54.00
12426;DHT22;6277;49.824;9.562;2023-07-13T05:16:29;19.30;54.00
12426;DHT22;6277;49.824;9.562;2023-07-13T05:18:54;19.40;54.00
12426;DHT22;6277;49.824;9.562;2023-07-13T05:21:20;19.50;54.10
12426;DHT22;6277;49.824;9.562;2023-07-13T05:23:46;19.50;54.00
12426;DHT22;6277;49.824;9.562;2023-07-13T05:26:12;19.60;54.00
12426;DHT22;6277;49.824;9.562;2023-07-13T05:28:38;19.70;53.90
12426;DHT22;6277;49.824;9.562;2023-07-13T05:31:04;19.70;53.80
12426;DHT22;6277;49.824;9.562;2023-07-13T05:33:30;19.80;53.80
12426;DHT22;6277;49.824;9.562;2023-07-13T05:35:56;19.90;53.70
12426;DHT22;6277;49.824;9.562;2023-07-13T05:38:21;20.00;53.60
12426;DHT22;6277;49.824;9.562;2023-07-13T05:40:47;20.00;53.60
12426;DHT22;6277;49.824;9.562;2023-07-13T05:43:13;20.00;53.60
12426;DHT22;6277;49.824;9.562;2023-07-13T05:45:39;20.10;53.60
12426;DHT22;6277;49.824;9.562;2023-07-13T05:48:05;20.10;53.60
12426;DHT22;6277;49.824;9.562;2023-07-13T05:50:31;20.20;53.50
12426;DHT22;6277;49.824;9.562;2023-07-13T05:52:57;20.20;53.30
12426;DHT22;6277;49.824;9.562;2023-07-13T05:55:22;20.20;53.30
12426;DHT22;6277;49.824;9.562;2023-07-13T05:57:48;20.30;53.30
12426;DHT22;6277;49.824;9.562;2023-07-13T06:00:15;20.30;53.90
12426;DHT22;6277;49.824;9.562;2023-07-13T06:02:40;20.30;53.20
12426;DHT22;6277;49.824;9.562;2023-07-13T06:05:06;20.40;53.30
12426;DHT22;6277;49.824;9.562;2023-07-13T06:07:32;20.40;53.30
12426;DHT22;6277;49.824;9.562;2023-07-13T06:09:57;20.50;53.30
12426;DHT22;6277;49.824;9.562;2023-07-13T06:12:25;20.50;53.30
12426;DHT22;6277;49.824;9.562;2023-07-13T06:14:50;20.60;53.40
12426;DHT22;6277;49.824;9.562;2023-07-13T06:17:16;20.70;53.40
12426;DHT22;6277;49.824;9.562;2023-07-13T06:19:41;20.70;53.20
12426;DHT22;6277;49.824;9.562;2023-07-13T06:22:07;20.80;53.00
12426;DHT22;6277;49.824;9.562;2023-07-13T06:24:32;20.80;52.90
12426;DHT22;6277;49.824;9.562;2023-07-13T06:26:58;20.90;52.70
12426;DHT22;6277;49.824;9.562;2023-07-13T06:29:23;21.00;52.30
12426;DHT22;6277;49.824;9.562;2023-07-13T06:31:49;21.00;52.20
12426;DHT22;6277;49.824;9.562;2023-07-13T06:34:14;21.10;52.00
12426;DHT22;6277;49.824;9.562;2023-07-13T06:36:40;21.10;51.90
12426;DHT22;6277;49.824;9.562;2023-07-13T06:39:06;21.20;51.90
12426;DHT22;6277;49.824;9.562;2023-07-13T06:41:32;21.30;51.60
12426;DHT22;6277;49.824;9.562;2023-07-13T06:43:58;21.30;51.70
12426;DHT22;6277;49.824;9.562;2023-07-13T06:46:24;21.40;51.70
12426;DHT22;6277;49.824;9.562;2023-07-13T06:48:50;21.50;51.20
12426;DHT22;6277;49.824;9.562;2023-07-13T06:51:16;21.60;50.90
12426;DHT22;6277;49.824;9.562;2023-07-13T06:53:41;21.60;51.00
12426;DHT22;6277;49.824;9.562;2023-07-13T06:56:09;21.70;50.80
12426;DHT22;6277;49.824;9.562;2023-07-13T06:58:35;21.80;50.70
12426;DHT22;6277;49.824;9.562;2023-07-13T07:01:01;21.80;50.80
12426;DHT22;6277;49.824;9.562;2023-07-13T07:03:26;21.90;50.70
12426;DHT22;6277;49.824;9.562;2023-07-13T07:05:52;21.90;50.40
12426;DHT22;6277;49.824;9.562;2023-07-13T07:08:18;22.00;50.20
12426;DHT22;6277;49.824;9.562;2023-07-13T07:10:44;22.00;50.30
12426;DHT22;6277;49.824;9.562;2023-07-13T07:13:10;22.00;50.10
12426;DHT22;6277;49.824;9.562;2023-07-13T07:15:36;22.00;50.00
12426;DHT22;6277;49.824;9.562;2023-07-13T07:18:02;22.10;50.10
12426;DHT22;6277;49.824;9.562;2023-07-13T07:20:27;22.10;49.90
12426;DHT22;6277;49.824;9.562;2023-07-13T07:22:53;22.20;49.90
12426;DHT22;6277;49.824;9.562;2023-07-13T07:25:19;22.20;50.00
12426;DHT22;6277;49.824;9.562;2023-07-13T07:27:45;22.30;49.90
12426;DHT22;6277;49.824;9.562;2023-07-13T07:30:11;22.30;49.70
12426;DHT22;6277;49.824;9.562;2023-07-13T07:32:36;22.40;49.70
12426;DHT22;6277;49.824;9.562;2023-07-13T07:35:02;22.40;49.60
12426;DHT22;6277;49.824;9.562;2023-07-13T07:37:28;22.40;49.40
12426;DHT22;6277;49.824;9.562;2023-07-13T07:39:53;22.50;49.40
12426;DHT22;6277;49.824;9.562;2023-07-13T07:42:19;22.50;49.40
12426;DHT22;6277;49.824;9.562;2023-07-13T07:44:44;22.50;49.10
12426;DHT22;6277;49.824;9.562;2023-07-13T07:47:10;22.60;49.60
12426;DHT22;6277;49.824;9.562;2023-07-13T07:49:37;22.60;49.50
12426;DHT22;6277;49.824;9.562;2023-07-13T07:52:04;22.60;49.10
12426;DHT22;6277;49.824;9.562;2023-07-13T07:54:29;22.70;49.20
12426;DHT22;6277;49.824;9.562;2023-07-13T07:56:55;22.80;49.10
12426;DHT22;6277;49.824;9.562;2023-07-13T07:59:20;22.80;49.00
12426;DHT22;6277;49.824;9.562;2023-07-13T08:01:46;22.80;49.00
12426;DHT22;6277;49.824;9.562;2023-07-13T08:04:13;22.90;49.00
12426;DHT22;6277;49.824;9.562;2023-07-13T08:06:38;23.00;48.90
12426;DHT22;6277;49.824;9.562;2023-07-13T08:09:04;23.00;48.70
12426;DHT22;6277;49.824;9.562;2023-07-13T08:11:30;23.00;48.70
12426;DHT22;6277;49.824;9.562;2023-07-13T08:13:56;23.10;48.60
12426;DHT22;6277;49.824;9.562;2023-07-13T08:16:22;23.20;48.40
12426;DHT22;6277;49.824;9.562;2023-07-13T08:18:48;23.20;48.50
12426;DHT22;6277;49.824;9.562;2023-07-13T08:21:14;23.20;48.20
12426;DHT22;6277;49.824;9.562;2023-07-13T08:23:39;23.30;48.20
12426;DHT22;6277;49.824;9.562;2023-07-13T08:26:05;23.40;48.20
12426;DHT22;6277;49.824;9.562;2023-07-13T08:28:32;23.40;48.00
12426;DHT22;6277;49.824;9.562;2023-07-13T08:31:03;23.50;47.90
12426;DHT22;6277;49.824;9.562;2023-07-13T08:33:29;23.60;47.60
12426;DHT22;6277;49.824;9.562;2023-07-13T08:35:54;23.60;47.80
12426;DHT22;6277;49.824;9.562;2023-07-13T08:38:20;23.70;47.60
12426;DHT22;6277;49.824;9.562;2023-07-13T08:40:54;23.80;47.40
12426;DHT22;6277;49.824;9.562;2023-07-13T08:43:30;23.80;47.10
12426;DHT22;6277;49.824;9.562;2023-07-13T08:46:24;23.90;46.80
12426;DHT22;6277;49.824;9.562;2023-07-13T08:48:56;23.90;46.70
12426;DHT22;6277;49.824;9.562;2023-07-13T08:51:46;24.00;46.60
12426;DHT22;6277;49.824;9.562;2023-07-13T08:54:32;24.00;46.30
12426;DHT22;6277;49.824;9.562;2023-07-13T08:57:03;24.10;46.20
12426;DHT22;6277;49.824;9.562;2023-07-13T08:59:33;24.10;46.10
12426;DHT22;6277;49.824;9.562;2023-07-13T09:04:48;24.20;45.80
12426;DHT22;6277;49.824;9.562;2023-07-13T09:10:11;24.30;45.40
12426;DHT22;6277;49.824;9.562;2023-07-13T09:13:07;24.40;46.00
12426;DHT22;6277;49.824;9.562;2023-07-13T09:15:40;24.50;45.10
12426;DHT22;6277;49.824;9.562;2023-07-13T09:18:16;24.60;45.50
12426;DHT22;6277;49.824;9.562;2023-07-13T09:20:46;24.70;45.40
12426;DHT22;6277;49.824;9.562;2023-07-13T09:23:16;24.80;45.30
12426;DHT22;6277;49.824;9.562;2023-07-13T09:25:45;24.80;44.90
12426;DHT22;6277;49.824;9.562;2023-07-13T09:28:18;24.90;44.80
12426;DHT22;6277;49.824;9.562;2023-07-13T09:33:33;25.00;45.00
12426;DHT22;6277;49.824;9.562;2023-07-13T09:36:00;25.10;45.00
12426;DHT22;6277;49.824;9.562;2023-07-13T09:38:28;25.20;44.70
12426;DHT22;6277;49.824;9.562;2023-07-13T09:46:38;25.50;44.40
12426;DHT22;6277;49.824;9.562;2023-07-13T09:49:03;25.60;44.60
12426;DHT22;6277;49.824;9.562;2023-07-13T09:51:29;25.60;44.40
12426;DHT22;6277;49.824;9.562;2023-07-13T09:53:55;25.80;44.50
12426;DHT22;6277;49.824;9.562;2023-07-13T09:58:46;26.00;43.80
12426;DHT22;6277;49.824;9.562;2023-07-13T10:01:11;26.10;43.40
12426;DHT22;6277;49.824;9.562;2023-07-13T10:03:39;26.20;43.30
12426;DHT22;6277;49.824;9.562;2023-07-13T10:06:25;26.20;43.00
12426;DHT22;6277;49.824;9.562;2023-07-13T10:08:56;26.30;42.00
12426;DHT22;6277;49.824;9.562;2023-07-13T10:11:26;26.30;42.60
12426;DHT22;6277;49.824;9.562;2023-07-13T10:13:57;26.40;42.70
12426;DHT22;6277;49.824;9.562;2023-07-13T10:16:26;26.50;42.50
12426;DHT22;6277;49.824;9.562;2023-07-13T10:18:58;26.50;42.50
12426;DHT22;6277;49.824;9.562;2023-07-13T10:21:31;26.60;41.90
12426;DHT22;6277;49.824;9.562;2023-07-13T10:24:04;26.70;42.20
12426;DHT22;6277;49.824;9.562;2023-07-13T10:26:33;26.80;42.00
12426;DHT22;6277;49.824;9.562;2023-07-13T10:29:05;26.90;42.00
12426;DHT22;6277;49.824;9.562;2023-07-13T10:31:32;27.10;41.40
12426;DHT22;6277;49.824;9.562;2023-07-13T10:34:00;27.10;41.90
12426;DHT22;6277;49.824;9.562;2023-07-13T10:36:28;27.20;41.10
12426;DHT22;6277;49.824;9.562;2023-07-13T10:38:55;27.20;41.30
12426;DHT22;6277;49.824;9.562;2023-07-13T10:41:24;27.30;40.80
12426;DHT22;6277;49.824;9.562;2023-07-13T10:43:52;27.40;40.50
12426;DHT22;6277;49.824;9.562;2023-07-13T10:46:21;27.40;40.50
12426;DHT22;6277;49.824;9.562;2023-07-13T10:48:51;27.50;40.20
12426;DHT22;6277;49.824;9.562;2023-07-13T10:51:19;27.60;40.50
12426;DHT22;6277;49.824;9.562;2023-07-13T10:53:47;27.70;40.10
12426;DHT22;6277;49.824;9.562;2023-07-13T10:58:47;27.80;38.90
12426;DHT22;6277;49.824;9.562;2023-07-13T11:01:39;27.80;39.90
12426;DHT22;6277;49.824;9.562;2023-07-13T11:04:11;27.90;39.60
12426;DHT22;6277;49.824;9.562;2023-07-13T11:06:38;27.90;39.40
12426;DHT22;6277;49.824;9.562;2023-07-13T11:09:40;27.90;39.30
12426;DHT22;6277;49.824;9.562;2023-07-13T11:15:05;27.90;38.80
12426;DHT22;6277;49.824;9.562;2023-07-13T11:17:53;27.80;38.30
12426;DHT22;6277;49.824;9.562;2023-07-13T11:20:34;27.80;38.40
12426;DHT22;6277;49.824;9.562;2023-07-13T11:23:19;27.80;38.40
12426;DHT22;6277;49.824;9.562;2023-07-13T11:25:46;27.70;38.40
12426;DHT22;6277;49.824;9.562;2023-07-13T11:33:21;27.70;38.50
12426;DHT22;6277;49.824;9.562;2023-07-13T11:38:40;27.90;38.00
12426;DHT22;6277;49.824;9.562;2023-07-13T11:43:44;27.90;37.80
12426;DHT22;6277;49.824;9.562;2023-07-13T11:46:24;28.00;38.20
12426;DHT22;6277;49.824;9.562;2023-07-13T11:48:51;28.00;37.90
12426;DHT22;6277;49.824;9.562;2023-07-13T11:51:30;28.10;38.60
12426;DHT22;6277;49.824;9.562;2023-07-13T11:54:03;28.20;38.20
12426;DHT22;6277;49.824;9.562;2023-07-13T11:56:30;28.20;38.90
12426;DHT22;6277;49.824;9.562;2023-07-13T11:58:59;28.30;38.20
12426;DHT22;6277;49.824;9.562;2023-07-13T12:01:30;28.30;38.00
12426;DHT22;6277;49.824;9.562;2023-07-13T12:04:02;28.30;38.00
12426;DHT22;6277;49.824;9.562;2023-07-13T12:06:35;28.40;38.60
12426;DHT22;6277;49.824;9.562;2023-07-13T12:09:14;28.40;37.70
12426;DHT22;6277;49.824;9.562;2023-07-13T12:11:43;28.50;37.60
12426;DHT22;6277;49.824;9.562;2023-07-13T12:14:16;28.60;37.30
12426;DHT22;6277;49.824;9.562;2023-07-13T12:16:43;28.60;37.10
12426;DHT22;6277;49.824;9.562;2023-07-13T12:19:24;28.60;37.00
12426;DHT22;6277;49.824;9.562;2023-07-13T12:21:53;28.50;36.70
12426;DHT22;6277;49.824;9.562;2023-07-13T12:24:21;28.40;36.50
12426;DHT22;6277;49.824;9.562;2023-07-13T12:26:59;28.30;36.80
12426;DHT22;6277;49.824;9.562;2023-07-13T12:29:26;28.20;36.60
12426;DHT22;6277;49.824;9.562;2023-07-13T12:31:52;28.20;37.20
12426;DHT22;6277;49.824;9.562;2023-07-13T12:34:23;28.10;37.10
12426;DHT22;6277;49.824;9.562;2023-07-13T12:36:54;28.10;36.90
12426;DHT22;6277;49.824;9.562;2023-07-13T12:39:44;28.10;37.20
12426;DHT22;6277;49.824;9.562;2023-07-13T12:42:25;28.10;37.00
12426;DHT22;6277;49.824;9.562;2023-07-13T12:47:30;28.20;37.20
12426;DHT22;6277;49.824;9.562;2023-07-13T12:49:58;28.20;37.10
12426;DHT22;6277;49.824;9.562;2023-07-13T12:52:30;28.20;36.90
12426;DHT22;6277;49.824;9.562;2023-07-13T12:55:08;28.20;37.10
12426;DHT22;6277;49.824;9.562;2023-07-13T12:57:50;28.20;36.60
12426;DHT22;6277;49.824;9.562;2023-07-13T13:00:31;28.30;36.80
12426;DHT22;6277;49.824;9.562;2023-07-13T13:03:07;28.30;36.60
12426;DHT22;6277;49.824;9.562;2023-07-13T13:05:37;28.30;36.40
12426;DHT22;6277;49.824;9.562;2023-07-13T13:08:03;28.30;36.60
12426;DHT22;6277;49.824;9.562;2023-07-13T13:10:29;28.40;36.60
12426;DHT22;6277;49.824;9.562;2023-07-13T13:12:54;28.50;36.60
12426;DHT22;6277;49.824;9.562;2023-07-13T13:15:20;28.60;36.50
12426;DHT22;6277;49.824;9.562;2023-07-13T13:17:47;28.60;36.10
12426;DHT22;6277;49.824;9.562;2023-07-13T13:20:21;28.60;36.10
12426;DHT22;6277;49.824;9.562;2023-07-13T13:22:47;28.70;35.60
12426;DHT22;6277;49.824;9.562;2023-07-13T13:25:14;28.70;36.10
12426;DHT22;6277;49.824;9.562;2023-07-13T13:27:41;28.70;36.00
12426;DHT22;6277;49.824;9.562;2023-07-13T13:30:12;28.80;36.00
12426;DHT22;6277;49.824;9.562;2023-07-13T13:32:39;28.80;35.50
12426;DHT22;6277;49.824;9.562;2023-07-13T13:35:05;28.70;35.60
12426;DHT22;6277;49.824;9.562;2023-07-13T13:37:31;28.60;35.40
12426;DHT22;6277;49.824;9.562;2023-07-13T13:39:57;28.50;35.50
12426;DHT22;6277;49.824;9.562;2023-07-13T13:42:22;28.40;35.70
12426;DHT22;6277;49.824;9.562;2023-07-13T13:44:50;28.40;35.70
12426;DHT22;6277;49.824;9.562;2023-07-13T13:47:29;28.30;35.70
12426;DHT22;6277;49.824;9.562;2023-07-13T13:49:56;28.30;35.80
12426;DHT22;6277;49.824;9.562;2023-07-13T13:52:21;28.40;36.20
12426;DHT22;6277;49.824;9.562;2023-07-13T13:54:47;28.50;36.30
12426;DHT22;6277;49.824;9.562;2023-07-13T13:57:13;28.70;36.00
12426;DHT22;6277;49.824;9.562;2023-07-13T13:59:39;28.90;35.80
12426;DHT22;6277;49.824;9.562;2023-07-13T14:02:24;29.10;35.70
12426;DHT22;6277;49.824;9.562;2023-07-13T14:04:54;29.30;35.30
12426;DHT22;6277;49.824;9.562;2023-07-13T14:07:21;29.30;34.90
12426;DHT22;6277;49.824;9.562;2023-07-13T14:09:46;29.40;35.00
12426;DHT22;6277;49.824;9.562;2023-07-13T14:12:12;29.40;34.80
12426;DHT22;6277;49.824;9.562;2023-07-13T14:14:39;29.50;34.90
12426;DHT22;6277;49.824;9.562;2023-07-13T14:17:24;29.60;34.80
12426;DHT22;6277;49.824;9.562;2023-07-13T14:19:51;29.60;34.30
12426;DHT22;6277;49.824;9.562;2023-07-13T14:22:20;29.60;34.30
12426;DHT22;6277;49.824;9.562;2023-07-13T14:24:46;29.60;34.30
12426;DHT22;6277;49.824;9.562;2023-07-13T14:27:11;29.50;34.40
12426;DHT22;6277;49.824;9.562;2023-07-13T14:29:37;29.50;34.30
12426;DHT22;6277;49.824;9.562;2023-07-13T14:32:03;29.40;34.20
12426;DHT22;6277;49.824;9.562;2023-07-13T14:34:30;29.40;34.30
12426;DHT22;6277;49.824;9.562;2023-07-13T14:36:56;29.30;34.40
12426;DHT22;6277;49.824;9.562;2023-07-13T14:39:24;29.30;34.50
12426;DHT22;6277;49.824;9.562;2023-07-13T14:41:54;29.30;34.80
12426;DHT22;6277;49.824;9.562;2023-07-13T14:44:27;29.40;34.80
12426;DHT22;6277;49.824;9.562;2023-07-13T14:46:58;29.60;34.60
12426;DHT22;6277;49.824;9.562;2023-07-13T14:51:54;29.80;33.90
12426;DHT22;6277;49.824;9.562;2023-07-13T14:54:19;29.90;34.00
12426;DHT22;6277;49.824;9.562;2023-07-13T14:56:45;30.10;34.30
12426;DHT22;6277;49.824;9.562;2023-07-13T14:59:10;30.20;33.80
12426;DHT22;6277;49.824;9.562;2023-07-13T15:01:39;30.20;33.60
12426;DHT22;6277;49.824;9.562;2023-07-13T15:04:05;30.30;33.70
12426;DHT22;6277;49.824;9.562;2023-07-13T15:06:31;30.30;33.80
12426;DHT22;6277;49.824;9.562;2023-07-13T15:08:57;30.30;33.40
12426;DHT22;6277;49.824;9.562;2023-07-13T15:11:22;30.20;33.30
12426;DHT22;6277;49.824;9.562;2023-07-13T15:13:48;30.20;33.40
12426;DHT22;6277;49.824;9.562;2023-07-13T15:16:21;30.20;33.30
12426;DHT22;6277;49.824;9.562;2023-07-13T15:18:48;30.30;33.20
12426;DHT22;6277;49.824;9.562;2023-07-13T15:21:21;30.30;33.60
12426;DHT22;6277;49.824;9.562;2023-07-13T15:23:48;30.50;33.10
12426;DHT22;6277;49.824;9.562;2023-07-13T15:26:15;30.70;33.50
12426;DHT22;6277;49.824;9.562;2023-07-13T15:28:42;30.90;33.30
12426;DHT22;6277;49.824;9.562;2023-07-13T15:31:24;31.00;33.50
12426;DHT22;6277;49.824;9.562;2023-07-13T15:33:51;31.30;33.00
12426;DHT22;6277;49.824;9.562;2023-07-13T15:36:19;31.50;33.10
12426;DHT22;6277;49.824;9.562;2023-07-13T15:38:45;31.80;33.00
12426;DHT22;6277;49.824;9.562;2023-07-13T15:41:26;31.90;32.60
12426;DHT22;6277;49.824;9.562;2023-07-13T15:43:55;32.30;31.90
12426;DHT22;6277;49.824;9.562;2023-07-13T15:46:22;32.50;32.40
12426;DHT22;6277;49.824;9.562;2023-07-13T15:48:50;32.70;32.10
12426;DHT22;6277;49.824;9.562;2023-07-13T15:51:25;32.90;31.90
12426;DHT22;6277;49.824;9.562;2023-07-13T15:53:58;33.00;31.10
12426;DHT22;6277;49.824;9.562;2023-07-13T15:56:27;33.00;30.90
12426;DHT22;6277;49.824;9.562;2023-07-13T15:58:54;32.90;30.80
12426;DHT22;6277;49.824;9.562;2023-07-13T16:01:22;32.70;30.50
12426;DHT22;6277;49.824;9.562;2023-07-13T16:03:49;32.40;30.40
12426;DHT22;6277;49.824;9.562;2023-07-13T16:06:34;32.20;30.60
12426;DHT22;6277;49.824;9.562;2023-07-13T16:09:02;32.00;30.50
12426;DHT22;6277;49.824;9.562;2023-07-13T16:11:34;32.00;31.30
12426;DHT22;6277;49.824;9.562;2023-07-13T16:14:00;32.00;31.00
12426;DHT22;6277;49.824;9.562;2023-07-13T16:16:31;32.20;31.30
12426;DHT22;6277;49.824;9.562;2023-07-13T16:18:59;32.30;31.20
12426;DHT22;6277;49.824;9.562;2023-07-13T16:21:35;32.50;31.10
12426;DHT22;6277;49.824;9.562;2023-07-13T16:24:02;32.60;31.00
12426;DHT22;6277;49.824;9.562;2023-07-13T16:26:36;32.80;31.90
12426;DHT22;6277;49.824;9.562;2023-07-13T16:29:11;33.10;30.70